Time;durP1;ratioP1;P1;durP2;ratioP2;P2;SDS_P1;SDS_P2;PMS_P1;PMS_P2;Temp;Humidity;BMP_temperature;BMP_pressure;BME280_temperature;BME280_humidity;BME280_pressure;Samples;Min_cycle;Max_cycle;Signal;HPM_P1;HPM_P2
2022/04/01 00:00:42;;;;;;;0.00;0.00;;;;;;;;;;6149636;23;20033;-61
2022/04/01 00:03:09;;;;;;;0.00;0.00;;;;;;;;;;6150607;23;20005;-60
2022/04/01 00:05:34;;;;;;;0.43;0.43;;;;;;;;;;6151293;23;20447;-55
2022/04/01 00:08:00;;;;;;;0.00;0.00;;;;;;;;;;6152415;23;20006;-52
2022/04/01 00:10:26;;;;;;;0.00;0.00;;;;;;;;;;6126408;23;20001;-54
2022/04/01 00:12:52;;;;;;;0.00;0.00;;;;;;;;;;6153742;23;20139;-55
2022/04/01 00:15:17;;;;;;;0.00;0.00;;;;;;;;;;6154973;23;19994;-52
2022/04/01 00:17:43;;;;;;;0.63;0.63;;;;;;;;;;6154599;23;20013;-55
2022/04/01 00:20:09;;;;;;;1.77;1.65;;;;;;;;;;6154782;23;20059;-53
2022/04/01 00:22:34;;;;;;;0.00;0.00;;;;;;;;;;6154671;23;20099;-53
2022/04/01 00:25:00;;;;;;;0.00;0.00;;;;;;;;;;6155076;23;20001;-53
2022/04/01 00:27:25;;;;;;;0.43;0.43;;;;;;;;;;6154371;23;19998;-56
2022/04/01 00:29:50;;;;;;;0.25;0.25;;;;;;;;;;6154680;23;20009;-55
2022/04/01 00:32:15;;;;;;;0.73;0.73;;;;;;;;;;6154446;23;20084;-54
2022/04/01 00:34:41;;;;;;;1.08;1.08;;;;;;;;;;6153740;23;20044;-56
2022/04/01 00:37:06;;;;;;;0.00;0.00;;;;;;;;;;6154180;23;20085;-54
2022/04/01 00:39:32;;;;;;;3.50;2.63;;;;;;;;;;6154529;23;20001;-55
2022/04/01 00:41:58;;;;;;;2.10;1.85;;;;;;;;;;6154010;23;20008;-55
2022/04/01 00:44:24;;;;;;;0.30;0.30;;;;;;;;;;6154154;23;19997;-53
2022/04/01 00:46:50;;;;;;;2.53;2.20;;;;;;;;;;6154142;23;19994;-52
2022/04/01 00:49:16;;;;;;;0.35;0.35;;;;;;;;;;6154305;23;20002;-55
2022/04/01 00:51:43;;;;;;;2.30;2.20;;;;;;;;;;6153954;23;20028;-55
2022/04/01 00:54:08;;;;;;;0.00;0.00;;;;;;;;;;6154572;23;20056;-53
2022/04/01 00:56:34;;;;;;;3.05;2.83;;;;;;;;;;6153917;23;20408;-53
2022/04/01 00:59:00;;;;;;;0.55;0.55;;;;;;;;;;6154054;23;20068;-53
2022/04/01 01:01:26;;;;;;;3.13;2.83;;;;;;;;;;6154014;23;20005;-55
2022/04/01 01:03:51;;;;;;;0.00;0.00;;;;;;;;;;6154021;23;20005;-55
2022/04/01 01:06:18;;;;;;;1.95;1.20;;;;;;;;;;6153740;23;20834;-55
2022/04/01 01:08:43;;;;;;;0.55;0.55;;;;;;;;;;6153612;23;20008;-52
2022/04/01 01:11:09;;;;;;;1.27;1.27;;;;;;;;;;6153430;23;20330;-53
2022/04/01 01:13:35;;;;;;;0.00;0.00;;;;;;;;;;6153346;23;19993;-52
2022/04/01 01:16:00;;;;;;;0.45;0.45;;;;;;;;;;6153874;23;20064;-54
2022/04/01 01:18:25;;;;;;;0.30;0.30;;;;;;;;;;6153391;23;19997;-52
2022/04/01 01:20:51;;;;;;;3.13;2.92;;;;;;;;;;6153991;23;20001;-54
2022/04/01 01:23:16;;;;;;;3.28;3.08;;;;;;;;;;6153629;23;20012;-54
2022/04/01 01:25:41;;;;;;;0.00;0.00;;;;;;;;;;6154020;23;20005;-56
2022/04/01 01:28:07;;;;;;;0.55;0.55;;;;;;;;;;6153860;23;20005;-54
2022/04/01 01:30:32;;;;;;;0.98;0.98;;;;;;;;;;6153378;23;20032;-54
2022/04/01 01:32:58;;;;;;;0.00;0.00;;;;;;;;;;6153932;23;20012;-55
2022/04/01 01:35:23;;;;;;;0.57;0.38;;;;;;;;;;6153688;23;19997;-54
2022/04/01 01:37:49;;;;;;;0.00;0.00;;;;;;;;;;6153779;23;20556;-55
2022/04/01 01:40:14;;;;;;;0.00;0.00;;;;;;;;;;6153571;23;20412;-54
2022/04/01 01:42:39;;;;;;;0.00;0.00;;;;;;;;;;6154036;23;20005;-55
2022/04/01 01:45:05;;;;;;;0.90;0.65;;;;;;;;;;6153888;23;20001;-53
2022/04/01 01:47:31;;;;;;;0.00;0.00;;;;;;;;;;6153365;23;20505;-53
2022/04/01 01:55:27;;;;;;;1.85;1.85;;;;;;;;;;6153263;23;20436;-53
2022/04/01 01:57:52;;;;;;;2.80;2.72;;;;;;;;;;6153621;23;20347;-54
2022/04/01 02:00:21;;;;;;;3.03;2.75;;;;;;;;;;6126711;23;20012;-55
2022/04/01 02:02:47;;;;;;;;;;;;;;;;;;6153988;23;20320;-55
2022/04/01 02:05:12;;;;;;;0.00;0.00;;;;;;;;;;6153483;23;19928;-55
2022/04/01 02:07:37;;;;;;;0.00;0.00;;;;;;;;;;6152983;23;20056;-56
2022/04/01 02:10:03;;;;;;;0.85;0.85;;;;;;;;;;6153435;23;20024;-52
2022/04/01 02:12:30;;;;;;;0.00;0.00;;;;;;;;;;6153349;23;20072;-52
2022/04/01 02:14:55;;;;;;;0.55;0.55;;;;;;;;;;6153708;23;20001;-53
2022/04/01 02:17:22;;;;;;;0.15;0.15;;;;;;;;;;6152908;23;20720;-52
2022/04/01 02:19:49;;;;;;;0.00;0.00;;;;;;;;;;6153903;23;20420;-54
2022/04/01 02:22:15;;;;;;;0.00;0.00;;;;;;;;;;6152973;23;20008;-56
2022/04/01 02:24:41;;;;;;;0.00;0.00;;;;;;;;;;6153842;23;20482;-53
2022/04/01 02:27:07;;;;;;;0.43;0.43;;;;;;;;;;6153655;23;20009;-55
2022/04/01 02:29:32;;;;;;;0.00;0.00;;;;;;;;;;6152709;23;20028;-55
2022/04/01 02:31:58;;;;;;;0.30;0.30;;;;;;;;;;6153924;23;20426;-54
2022/04/01 02:34:27;;;;;;;0.35;0.35;;;;;;;;;;6152780;23;19998;-54
2022/04/01 02:36:55;;;;;;;0.10;0.10;;;;;;;;;;6153174;23;20008;-51
2022/04/01 02:39:20;;;;;;;0.40;0.40;;;;;;;;;;6153341;23;20552;-53
2022/04/01 02:41:46;;;;;;;0.00;0.00;;;;;;;;;;6153157;23;20025;-54
2022/04/01 02:44:14;;;;;;;0.85;0.85;;;;;;;;;;6153208;23;20012;-54
2022/04/01 02:46:40;;;;;;;1.77;1.75;;;;;;;;;;6153143;23;20379;-51
2022/04/01 02:54:07;;;;;;;0.00;0.00;;;;;;;;;;6150702;23;20033;-53
2022/04/01 02:56:33;;;;;;;0.20;0.20;;;;;;;;;;6152831;23;20036;-54
2022/04/01 02:58:59;;;;;;;1.40;1.33;;;;;;;;;;6151560;23;20045;-53
2022/04/01 03:01:24;;;;;;;0.88;0.88;;;;;;;;;;6152078;23;20415;-51
2022/04/01 03:03:49;;;;;;;1.05;0.68;;;;;;;;;;6152675;23;19994;-55
2022/04/01 03:06:15;;;;;;;0.05;0.05;;;;;;;;;;6151714;23;19994;-53
2022/04/01 03:08:41;;;;;;;0.95;0.95;;;;;;;;;;6152903;23;20008;-55
2022/04/01 03:11:06;;;;;;;2.28;1.60;;;;;;;;;;6151567;23;20029;-56
2022/04/01 03:13:32;;;;;;;3.95;3.63;;;;;;;;;;6152480;23;20002;-55
2022/04/01 03:15:57;;;;;;;4.88;1.23;;;;;;;;;;6151632;23;20002;-54
2022/04/01 03:18:23;;;;;;;0.00;0.00;;;;;;;;;;6151981;23;20395;-55
2022/04/01 03:20:48;;;;;;;0.00;0.00;;;;;;;;;;6152632;23;20003;-54
2022/04/01 03:23:14;;;;;;;0.00;0.00;;;;;;;;;;6151756;23;20056;-54
2022/04/01 03:25:39;;;;;;;0.20;0.20;;;;;;;;;;6152385;23;20020;-53
2022/04/01 03:28:04;;;;;;;1.73;1.65;;;;;;;;;;6152147;23;20327;-53
2022/04/01 03:30:29;;;;;;;2.28;1.60;;;;;;;;;;6152003;23;20002;-55
2022/04/01 03:32:55;;;;;;;0.10;0.10;;;;;;;;;;6152655;23;20009;-54
2022/04/01 03:35:21;;;;;;;0.57;0.55;;;;;;;;;;6151923;23;20001;-56
2022/04/01 03:37:47;;;;;;;0.10;0.10;;;;;;;;;;6152172;23;20081;-54
2022/04/01 03:40:16;;;;;;;0.00;0.00;;;;;;;;;;6151750;23;20005;-55
2022/04/01 03:42:42;;;;;;;0.00;0.00;;;;;;;;;;6152001;23;20001;-55
2022/04/01 03:45:07;;;;;;;3.05;2.95;;;;;;;;;;6151824;23;20008;-56
2022/04/01 03:47:48;;;;;;;0.15;0.15;;;;;;;;;;6153826;23;20416;-53
2022/04/01 03:50:16;;;;;;;0.43;0.43;;;;;;;;;;6153726;23;19998;-54
2022/04/01 03:52:42;;;;;;;1.00;1.00;;;;;;;;;;6153120;23;20064;-52
2022/04/01 03:55:08;;;;;;;2.70;2.08;;;;;;;;;;6153336;23;20009;-56
2022/04/01 03:57:37;;;;;;;0.55;0.17;;;;;;;;;;6153823;23;20012;-54
2022/04/01 04:00:05;;;;;;;1.65;1.40;;;;;;;;;;6153174;23;20513;-62
2022/04/01 04:02:32;;;;;;;0.55;0.55;;;;;;;;;;6151352;23;20420;-61
2022/04/01 04:04:58;;;;;;;0.00;0.00;;;;;;;;;;6151966;23;20005;-60
2022/04/01 04:07:24;;;;;;;0.70;0.70;;;;;;;;;;6150841;23;20004;-60
2022/04/01 04:09:50;;;;;;;0.00;0.00;;;;;;;;;;6152045;23;20029;-61
2022/04/01 04:12:16;;;;;;;0.28;0.22;;;;;;;;;;6151297;23;19998;-61
2022/04/01 04:14:41;;;;;;;1.23;1.17;;;;;;;;;;6151705;23;20005;-60
2022/04/01 04:17:10;;;;;;;1.85;1.45;;;;;;;;;;6151029;23;20006;-60
2022/04/01 04:19:50;;;;;;;0.63;0.63;;;;;;;;;;6151358;23;20168;-61
2022/04/01 04:22:16;;;;;;;;;;;;;;;;;;6151479;23;19994;-61
2022/04/01 04:25:10;;;;;;;0.00;0.00;;;;;;;;;;6151548;23;19968;-61
2022/04/01 04:27:36;;;;;;;0.00;0.00;;;;;;;;;;6151716;23;20004;-62
2022/04/01 04:30:03;;;;;;;0.82;0.82;;;;;;;;;;6151722;23;20005;-62
2022/04/01 04:32:55;;;;;;;0.68;0.68;;;;;;;;;;6151599;23;20016;-61
2022/04/01 04:35:20;;;;;;;0.65;0.65;;;;;;;;;;6151178;23;20001;-60
2022/04/01 04:37:46;;;;;;;0.00;0.00;;;;;;;;;;6151333;23;20064;-61
2022/04/01 04:40:14;;;;;;;0.00;0.00;;;;;;;;;;6150898;23;20005;-61
2022/04/01 04:42:45;;;;;;;0.43;0.43;;;;;;;;;;6151417;23;20068;-61
2022/04/01 04:45:11;;;;;;;0.85;0.85;;;;;;;;;;6151062;23;20027;-61
2022/04/01 04:47:36;;;;;;;0.00;0.00;;;;;;;;;;6151331;23;20006;-60
2022/04/01 04:50:02;;;;;;;0.63;0.63;;;;;;;;;;6150677;23;20002;-62
2022/04/01 04:52:32;;;;;;;3.15;1.27;;;;;;;;;;6151742;23;20002;-61
2022/04/01 04:54:58;;;;;;;1.45;1.45;;;;;;;;;;6151550;23;20643;-62
2022/04/01 04:57:25;;;;;;;0.00;0.00;;;;;;;;;;6151497;23;20327;-61
2022/04/01 04:59:56;;;;;;;0.88;0.88;;;;;;;;;;6151984;23;20012;-61
2022/04/01 05:02:27;;;;;;;0.45;0.45;;;;;;;;;;6151708;23;20005;-61
2022/04/01 05:05:04;;;;;;;0.00;0.00;;;;;;;;;;6152498;23;20009;-62
2022/04/01 05:07:34;;;;;;;1.67;1.52;;;;;;;;;;6151537;23;20007;-62
2022/04/01 05:10:08;;;;;;;0.08;0.08;;;;;;;;;;6126112;23;20006;-60
2022/04/01 05:12:36;;;;;;;1.25;0.52;;;;;;;;;;6152100;23;19994;-61
2022/04/01 05:15:08;;;;;;;0.30;0.30;;;;;;;;;;6151595;23;20005;-61
2022/04/01 05:17:36;;;;;;;0.00;0.00;;;;;;;;;;6151364;23;20002;-62
2022/04/01 05:20:02;;;;;;;0.70;0.70;;;;;;;;;;6151975;23;20002;-61
2022/04/01 05:22:36;;;;;;;0.75;0.75;;;;;;;;;;6151232;23;20017;-62
2022/04/01 05:25:03;;;;;;;0.17;0.17;;;;;;;;;;6151405;23;20013;-62
2022/04/01 05:27:30;;;;;;;1.10;1.10;;;;;;;;;;6151932;23;20002;-61
2022/04/01 05:30:01;;;;;;;0.10;0.10;;;;;;;;;;6151851;23;20005;-61
2022/04/01 05:32:31;;;;;;;0.98;0.98;;;;;;;;;;6151180;23;20025;-61
2022/04/01 05:34:58;;;;;;;1.58;1.48;;;;;;;;;;6151676;23;20033;-61
2022/04/01 05:37:25;;;;;;;0.10;0.10;;;;;;;;;;6150473;23;20009;-61
2022/04/01 05:39:51;;;;;;;1.00;0.88;;;;;;;;;;6151627;23;19998;-60
2022/04/01 05:42:18;;;;;;;0.43;0.43;;;;;;;;;;6151179;23;20002;-61
2022/04/01 05:44:44;;;;;;;1.45;1.45;;;;;;;;;;6151682;23;20005;-60
2022/04/01 05:47:10;;;;;;;0.60;0.60;;;;;;;;;;6150643;23;20024;-61
2022/04/01 05:49:45;;;;;;;3.45;3.22;;;;;;;;;;6151310;23;19998;-61
2022/04/01 05:52:10;;;;;;;0.10;0.10;;;;;;;;;;6150718;23;20344;-60
2022/04/01 05:54:37;;;;;;;0.75;0.75;;;;;;;;;;6151723;23;20040;-61
2022/04/01 05:57:03;;;;;;;1.48;0.55;;;;;;;;;;6151499;23;19993;-61
2022/04/01 05:59:28;;;;;;;0.03;0.03;;;;;;;;;;6150650;23;20072;-61
2022/04/01 06:02:05;;;;;;;0.05;0.05;;;;;;;;;;6151141;23;19993;-60
2022/04/01 06:04:37;;;;;;;3.10;2.10;;;;;;;;;;6151614;23;20005;-60
2022/04/01 06:07:05;;;;;;;1.35;1.35;;;;;;;;;;6150691;23;20052;-61
2022/04/01 06:09:35;;;;;;;1.08;1.08;;;;;;;;;;6150562;23;20006;-60
2022/04/01 06:12:01;;;;;;;1.58;1.23;;;;;;;;;;6151431;23;20001;-61
2022/04/01 06:15:05;;;;;;;1.85;1.08;;;;;;;;;;6150134;23;20001;-61
2022/04/01 06:17:31;;;;;;;0.13;0.13;;;;;;;;;;6031239;23;20603;-60
2022/04/01 06:19:56;;;;;;;1.58;1.48;;;;;;;;;;6031934;23;19999;-61
2022/04/01 06:22:23;;;;;;;0.55;0.55;;;;;;;;;;6085020;23;20004;-61
2022/04/01 06:24:59;;;;;;;1.55;1.45;;;;;;;;;;6150223;23;20006;-61
2022/04/01 06:27:34;;;;;;;0.55;0.40;;;;;;;;;;6150179;23;20017;-60
2022/04/01 06:30:06;;;;;;;1.02;1.02;;;;;;;;;;6151006;23;19997;-60
2022/04/01 06:32:50;;;;;;;0.35;0.35;;;;;;;;;;6150497;23;20006;-61
2022/04/01 06:35:15;;;;;;;0.03;0.03;;;;;;;;;;6150127;23;20065;-62
2022/04/01 06:37:48;;;;;;;1.08;1.08;;;;;;;;;;6150106;23;20718;-61
2022/04/01 06:40:14;;;;;;;1.65;0.32;;;;;;;;;;6149792;23;19993;-61
2022/04/01 06:42:40;;;;;;;0.60;0.60;;;;;;;;;;6150883;23;20006;-62
2022/04/01 06:45:08;;;;;;;0.90;0.85;;;;;;;;;;6149929;23;20025;-61
2022/04/01 06:47:34;;;;;;;1.70;1.70;;;;;;;;;;6150128;23;19997;-61
2022/04/01 06:49:59;;;;;;;0.80;0.55;;;;;;;;;;6150642;23;20006;-61
2022/04/01 06:52:26;;;;;;;1.33;0.25;;;;;;;;;;6149660;23;20001;-62
2022/04/01 06:54:51;;;;;;;2.63;2.42;;;;;;;;;;6123470;23;20120;-61
2022/04/01 06:57:16;;;;;;;1.63;1.52;;;;;;;;;;6145695;23;20561;-59
2022/04/01 06:59:41;;;;;;;0.22;0.22;;;;;;;;;;6149896;23;19997;-60
2022/04/01 07:02:07;;;;;;;2.63;1.58;;;;;;;;;;6150135;23;20001;-59
2022/04/01 07:04:32;;;;;;;0.00;0.00;;;;;;;;;;6150984;23;19998;-60
2022/04/01 07:06:59;;;;;;;1.67;1.67;;;;;;;;;;6150871;23;20378;-60
2022/04/01 07:09:25;;;;;;;0.52;0.52;;;;;;;;;;6150456;23;20080;-60
2022/04/01 07:11:50;;;;;;;0.00;0.00;;;;;;;;;;6151032;23;20021;-60
2022/04/01 07:14:16;;;;;;;1.25;1.25;;;;;;;;;;6149958;23;20002;-59
2022/04/01 07:16:41;;;;;;;1.60;1.50;;;;;;;;;;6151100;23;20008;-60
2022/04/01 07:19:07;;;;;;;2.50;1.25;;;;;;;;;;6151196;23;19994;-60
2022/04/01 07:21:32;;;;;;;1.65;1.25;;;;;;;;;;6149741;23;20001;-60
2022/04/01 07:23:59;;;;;;;2.25;2.15;;;;;;;;;;6150455;23;20335;-60
2022/04/01 07:26:24;;;;;;;0.52;0.52;;;;;;;;;;6149818;23;19994;-59
2022/04/01 07:28:50;;;;;;;2.35;2.25;;;;;;;;;;6151006;23;20002;-60
2022/04/01 07:33:59;;;;;;;2.85;2.75;;;;;;;;;;6150592;23;20328;-60
2022/04/01 07:36:24;;;;;;;3.28;3.08;;;;;;;;;;6150019;23;20001;-59
2022/04/01 07:38:49;;;;;;;0.47;0.47;;;;;;;;;;6150575;23;20076;-58
2022/04/01 07:41:15;;;;;;;1.33;1.27;;;;;;;;;;6149581;23;20022;-59
2022/04/01 07:43:40;;;;;;;0.00;0.00;;;;;;;;;;6150403;23;20021;-58
2022/04/01 07:46:06;;;;;;;0.45;0.40;;;;;;;;;;6150639;23;19997;-59
2022/04/01 07:48:31;;;;;;;1.02;1.02;;;;;;;;;;6149974;23;20073;-58
2022/04/01 07:50:56;;;;;;;1.65;1.55;;;;;;;;;;6150494;23;20033;-59
2022/04/01 07:53:21;;;;;;;10.07;2.63;;;;;;;;;;6149387;23;20359;-60
2022/04/01 07:55:49;;;;;;;2.45;2.30;;;;;;;;;;6150422;23;20479;-59
2022/04/01 07:58:14;;;;;;;0.73;0.73;;;;;;;;;;6149756;23;20006;-59
2022/04/01 08:00:40;;;;;;;0.55;0.38;;;;;;;;;;6150794;23;20005;-59
2022/04/01 08:03:05;;;;;;;0.08;0.08;;;;;;;;;;6150787;23;20004;-58
2022/04/01 08:05:30;;;;;;;1.23;1.13;;;;;;;;;;6150371;23;20441;-59
2022/04/01 08:07:55;;;;;;;0.93;0.93;;;;;;;;;;6150658;23;20036;-58
2022/04/01 08:10:21;;;;;;;2.05;1.95;;;;;;;;;;6149416;23;20445;-59
2022/04/01 08:12:46;;;;;;;0.40;0.40;;;;;;;;;;6150859;23;20081;-59
2022/04/01 08:15:12;;;;;;;1.05;1.05;;;;;;;;;;6150688;23;20048;-59
2022/04/01 08:17:37;;;;;;;2.42;2.22;;;;;;;;;;6150997;23;20002;-59
2022/04/01 08:20:03;;;;;;;0.52;0.52;;;;;;;;;;6151321;23;20009;-58
2022/04/01 08:22:28;;;;;;;2.40;2.30;;;;;;;;;;6150532;23;20437;-59
2022/04/01 08:24:54;;;;;;;0.40;0.40;;;;;;;;;;6150615;23;20084;-59
2022/04/01 08:27:19;;;;;;;5.82;2.97;;;;;;;;;;6150867;23;20324;-60
2022/04/01 08:29:45;;;;;;;2.13;1.92;;;;;;;;;;6150270;23;19998;-60
2022/04/01 08:32:10;;;;;;;2.03;1.92;;;;;;;;;;6151139;23;20008;-59
2022/04/01 08:34:35;;;;;;;0.25;0.25;;;;;;;;;;6152301;23;20368;-58
2022/04/01 08:37:02;;;;;;;3.72;2.53;;;;;;;;;;6152290;23;20077;-59
2022/04/01 08:39:28;;;;;;;0.00;0.00;;;;;;;;;;6151498;23;20012;-59
2022/04/01 08:41:54;;;;;;;2.72;2.50;;;;;;;;;;6152286;23;20025;-59
2022/04/01 08:44:19;;;;;;;0.10;0.10;;;;;;;;;;6152157;23;19998;-59
2022/04/01 08:46:44;;;;;;;1.75;1.65;;;;;;;;;;6151078;23;20004;-60
2022/04/01 08:49:10;;;;;;;3.20;2.92;;;;;;;;;;6152403;23;20009;-60
2022/04/01 08:51:35;;;;;;;0.52;0.52;;;;;;;;;;6151198;23;20579;-58
2022/04/01 08:54:02;;;;;;;1.73;1.65;;;;;;;;;;6151045;23;20451;-60
2022/04/01 08:56:27;;;;;;;0.70;0.63;;;;;;;;;;6151565;23;20008;-60
2022/04/01 08:58:53;;;;;;;2.92;2.72;;;;;;;;;;6152148;23;20005;-59
2022/04/01 09:01:18;;;;;;;0.25;0.25;;;;;;;;;;6151200;23;20005;-59
2022/04/01 09:03:43;;;;;;;3.55;2.83;;;;;;;;;;6152262;23;20076;-59
2022/04/01 09:06:09;;;;;;;2.10;1.98;;;;;;;;;;6151482;23;20000;-59
2022/04/01 09:08:35;;;;;;;4.03;3.40;;;;;;;;;;6150532;23;20001;-59
2022/04/01 09:11:04;;;;;;;0.65;0.55;;;;;;;;;;6152167;23;20016;-58
2022/04/01 09:13:33;;;;;;;0.50;0.43;;;;;;;;;;6151327;23;20002;-58
2022/04/01 09:15:59;;;;;;;1.00;1.00;;;;;;;;;;6125845;23;20002;-58
2022/04/01 09:18:44;;;;;;;1.95;1.80;;;;;;;;;;6151132;23;20018;-58
2022/04/01 09:21:11;;;;;;;4.07;3.13;;;;;;;;;;6151851;23;20008;-58
2022/04/01 09:23:36;;;;;;;0.05;0.05;;;;;;;;;;6150704;23;20024;-58
2022/04/01 09:26:02;;;;;;;1.90;1.80;;;;;;;;;;6152153;23;20412;-58
2022/04/01 09:28:29;;;;;;;2.10;2.00;;;;;;;;;;6125194;23;20012;-59
2022/04/01 09:31:10;;;;;;;1.08;1.08;;;;;;;;;;6125133;23;20006;-59
2022/04/01 09:33:47;;;;;;;1.85;1.70;;;;;;;;;;6124894;23;20001;-59
2022/04/01 09:36:17;;;;;;;0.85;0.85;;;;;;;;;;6150727;23;20009;-59
2022/04/01 09:38:42;;;;;;;;;;;;;;;;;;6150695;23;20008;-59
2022/04/01 09:41:08;;;;;;;1.95;1.38;;;;;;;;;;6151140;23;19901;-59
2022/04/01 09:43:37;;;;;;;1.60;1.58;;;;;;;;;;6149948;23;20072;-59
2022/04/01 09:46:04;;;;;;;0.43;0.40;;;;;;;;;;6151356;23;20081;-59
2022/04/01 09:48:37;;;;;;;1.63;1.52;;;;;;;;;;6150929;23;20014;-59
2022/04/01 09:51:03;;;;;;;1.83;1.73;;;;;;;;;;6151166;23;20060;-59
2022/04/01 09:53:28;;;;;;;1.70;1.27;;;;;;;;;;6150310;23;20447;-59
2022/04/01 09:55:53;;;;;;;1.88;1.77;;;;;;;;;;6150847;23;20408;-59
2022/04/01 09:58:20;;;;;;;2.03;1.92;;;;;;;;;;6146270;23;20049;-59
2022/04/01 10:00:46;;;;;;;0.77;0.77;;;;;;;;;;6147306;23;20001;-59
2022/04/01 10:03:12;;;;;;;1.85;1.75;;;;;;;;;;6150841;23;20005;-60
2022/04/01 10:05:39;;;;;;;1.38;0.80;;;;;;;;;;6150261;23;20073;-60
2022/04/01 10:08:05;;;;;;;2.95;2.17;;;;;;;;;;6150820;23;20381;-60
2022/04/01 10:10:31;;;;;;;2.00;1.90;;;;;;;;;;6150587;23;20005;-60
2022/04/01 10:13:00;;;;;;;4.10;2.83;;;;;;;;;;6150202;23;20327;-60
2022/04/01 10:15:28;;;;;;;1.52;1.42;;;;;;;;;;6150180;23;20029;-60
2022/04/01 10:17:55;;;;;;;5.00;2.83;;;;;;;;;;6150306;23;20005;-60
2022/04/01 10:20:21;;;;;;;1.20;1.02;;;;;;;;;;6150627;23;19999;-60
2022/04/01 10:22:47;;;;;;;0.52;0.52;;;;;;;;;;6150619;23;20081;-60
2022/04/01 10:25:15;;;;;;;3.45;1.60;;;;;;;;;;6150482;23;20045;-59
2022/04/01 10:27:43;;;;;;;1.52;1.42;;;;;;;;;;6151053;23;20009;-60
2022/04/01 10:30:09;;;;;;;2.42;2.33;;;;;;;;;;6150980;23;20025;-60
2022/04/01 10:32:35;;;;;;;3.90;2.22;;;;;;;;;;6150139;23;20005;-59
2022/04/01 10:35:01;;;;;;;1.17;1.17;;;;;;;;;;6124006;23;19997;-60
2022/04/01 10:37:28;;;;;;;1.08;1.08;;;;;;;;;;6149482;23;20342;-60
2022/04/01 10:39:54;;;;;;;1.15;1.15;;;;;;;;;;6150230;23;19997;-61
2022/04/01 10:42:24;;;;;;;2.58;2.38;;;;;;;;;;6149934;23;20000;-60
2022/04/01 10:44:49;;;;;;;2.30;2.20;;;;;;;;;;6151025;23;20012;-60
2022/04/01 10:47:14;;;;;;;1.85;1.27;;;;;;;;;;6146336;23;20068;-59
2022/04/01 10:52:24;;;;;;;1.85;1.75;;;;;;;;;;6149382;23;20510;-59
2022/04/01 10:55:09;;;;;;;1.50;1.40;;;;;;;;;;6150109;23;20033;-60
2022/04/01 10:57:45;;;;;;;3.22;2.70;;;;;;;;;;6148624;23;20079;-60
2022/04/01 11:00:14;;;;;;;0.95;0.95;;;;;;;;;;6150754;23;20002;-60
2022/04/01 11:02:40;;;;;;;1.53;1.43;;;;;;;;;;6150097;23;20002;-59
2022/04/01 11:05:21;;;;;;;0.50;0.50;;;;;;;;;;6149991;23;20482;-60
2022/04/01 11:08:07;;;;;;;1.70;0.30;;;;;;;;;;6150487;23;20316;-60
2022/04/01 11:10:34;;;;;;;1.65;1.00;;;;;;;;;;6149465;23;19998;-60
2022/04/01 11:12:59;;;;;;;2.78;1.45;;;;;;;;;;6150609;23;20008;-60
2022/04/01 11:15:26;;;;;;;0.47;0.47;;;;;;;;;;6147805;23;19997;-60
2022/04/01 11:17:57;;;;;;;1.40;1.00;;;;;;;;;;6149624;23;20002;-59
2022/04/01 11:20:27;;;;;;;0.32;0.32;;;;;;;;;;6149739;23;19994;-60
2022/04/01 11:22:52;;;;;;;0.65;0.65;;;;;;;;;;6150161;23;19994;-60
2022/04/01 11:25:23;;;;;;;0.88;0.88;;;;;;;;;;6149199;23;20339;-60
2022/04/01 11:28:14;;;;;;;0.65;0.65;;;;;;;;;;6149616;23;20064;-59
2022/04/01 11:30:44;;;;;;;0.22;0.22;;;;;;;;;;6150011;23;20009;-59
2022/04/01 11:33:13;;;;;;;5.50;4.10;;;;;;;;;;6150033;23;20041;-59
2022/04/01 11:35:42;;;;;;;2.30;1.85;;;;;;;;;;6149981;23;20423;-59
2022/04/01 11:38:08;;;;;;;0.57;0.57;;;;;;;;;;6149176;23;20005;-60
2022/04/01 11:40:36;;;;;;;1.58;1.48;;;;;;;;;;6149355;23;20104;-59
2022/04/01 11:43:04;;;;;;;1.42;1.35;;;;;;;;;;6150313;23;20001;-59
2022/04/01 11:45:29;;;;;;;0.57;0.57;;;;;;;;;;6149317;23;20060;-59
2022/04/01 11:47:54;;;;;;;0.57;0.57;;;;;;;;;;6149760;23;20002;-59
2022/04/01 11:50:22;;;;;;;2.28;1.55;;;;;;;;;;6150099;23;20004;-60
2022/04/01 11:52:48;;;;;;;0.43;0.43;;;;;;;;;;6149564;23;20010;-60
2022/04/01 11:55:32;;;;;;;2.28;0.85;;;;;;;;;;6150195;23;20005;-59
2022/04/01 11:57:58;;;;;;;0.00;0.00;;;;;;;;;;6150825;23;20006;-60
2022/04/01 12:00:24;;;;;;;0.00;0.00;;;;;;;;;;6149620;23;20497;-60
2022/04/01 12:02:53;;;;;;;1.33;1.25;;;;;;;;;;6150076;23;19994;-59
2022/04/01 12:05:19;;;;;;;1.75;1.40;;;;;;;;;;6149573;23;20017;-59
2022/04/01 12:10:38;;;;;;;0.40;0.40;;;;;;;;;;6150741;23;20088;-60
2022/04/01 12:13:05;;;;;;;1.90;1.80;;;;;;;;;;6152009;23;20327;-60
2022/04/01 12:15:35;;;;;;;1.25;0.55;;;;;;;;;;6151627;23;20001;-60
2022/04/01 12:18:00;;;;;;;;;;;;;;;;;;6152369;23;20002;-60
2022/04/01 12:20:28;;;;;;;0.80;0.38;;;;;;;;;;6152069;23;19927;-60
2022/04/01 12:22:54;;;;;;;1.17;1.17;;;;;;;;;;6151787;23;20367;-60
2022/04/01 12:25:19;;;;;;;0.30;0.30;;;;;;;;;;6151935;23;20025;-60
2022/04/01 12:27:54;;;;;;;1.73;1.63;;;;;;;;;;6152312;23;20332;-60
2022/04/01 12:30:26;;;;;;;0.00;0.00;;;;;;;;;;6151427;23;20489;-58
2022/04/01 12:32:55;;;;;;;2.17;1.83;;;;;;;;;;6152329;23;20431;-59
2022/04/01 12:35:22;;;;;;;2.97;2.78;;;;;;;;;;6151805;23;20006;-59
2022/04/01 12:38:00;;;;;;;3.08;1.80;;;;;;;;;;6151964;23;20676;-59
2022/04/01 12:40:25;;;;;;;2.10;1.45;;;;;;;;;;6151934;23;20005;-59
2022/04/01 12:42:51;;;;;;;1.15;1.15;;;;;;;;;;6151845;23;20060;-59
2022/04/01 12:45:16;;;;;;;0.52;0.45;;;;;;;;;;6151883;23;20000;-58
2022/04/01 12:47:41;;;;;;;0.43;0.43;;;;;;;;;;6151160;23;20024;-59
2022/04/01 12:50:08;;;;;;;2.35;1.17;;;;;;;;;;6152333;23;20419;-59
2022/04/01 12:52:33;;;;;;;0.45;0.45;;;;;;;;;;6151099;23;20012;-59
2022/04/01 12:55:00;;;;;;;0.00;0.00;;;;;;;;;;6151978;23;20336;-58
2022/04/01 12:57:25;;;;;;;1.50;1.50;;;;;;;;;;6151349;23;20330;-59
2022/04/01 12:59:51;;;;;;;1.42;1.35;;;;;;;;;;6151729;23;20077;-59
2022/04/01 13:02:21;;;;;;;1.13;1.13;;;;;;;;;;6152192;23;20076;-59
2022/04/01 13:04:48;;;;;;;0.00;0.00;;;;;;;;;;6151617;23;20425;-59
2022/04/01 13:07:15;;;;;;;2.45;2.35;;;;;;;;;;6151408;23;20005;-60
2022/04/01 13:09:54;;;;;;;6.15;2.38;;;;;;;;;;6125278;23;20008;-61
2022/04/01 13:12:39;;;;;;;2.92;2.72;;;;;;;;;;6125958;23;20133;-59
2022/04/01 13:15:05;;;;;;;3.10;1.88;;;;;;;;;;6150971;23;20420;-59
2022/04/01 13:17:43;;;;;;;0.00;0.00;;;;;;;;;;6150873;23;20029;-59
2022/04/01 13:20:10;;;;;;;0.83;0.83;;;;;;;;;;6151335;23;20407;-60
2022/04/01 13:22:35;;;;;;;1.48;1.38;;;;;;;;;;6150824;23;19997;-59
2022/04/01 13:25:01;;;;;;;3.17;2.97;;;;;;;;;;6151004;23;20016;-60
2022/04/01 13:27:27;;;;;;;0.93;0.73;;;;;;;;;;6150968;23;20002;-60
2022/04/01 13:29:54;;;;;;;1.65;1.13;;;;;;;;;;6151264;23;19993;-60
2022/04/01 13:32:19;;;;;;;0.00;0.00;;;;;;;;;;6151630;23;19997;-60
2022/04/01 13:34:44;;;;;;;0.32;0.32;;;;;;;;;;6151251;23;20048;-60
2022/04/01 13:37:10;;;;;;;0.65;0.65;;;;;;;;;;6152163;23;19997;-60
2022/04/01 13:39:36;;;;;;;2.65;2.45;;;;;;;;;;6151153;23;20080;-59
2022/04/01 13:42:02;;;;;;;1.13;1.10;;;;;;;;;;6151813;23;20080;-59
2022/04/01 13:44:28;;;;;;;2.97;2.20;;;;;;;;;;6151140;23;20038;-59
2022/04/01 13:46:54;;;;;;;0.08;0.05;;;;;;;;;;6151862;23;20024;-59
2022/04/01 13:49:19;;;;;;;0.40;0.40;;;;;;;;;;6152144;23;20009;-59
2022/04/01 13:51:45;;;;;;;1.40;1.30;;;;;;;;;;6151595;23;20001;-60
2022/04/01 13:54:10;;;;;;;1.95;1.85;;;;;;;;;;6151837;23;20021;-60
2022/04/01 13:56:36;;;;;;;2.60;2.50;;;;;;;;;;6151291;23;20001;-59
2022/04/01 13:59:01;;;;;;;1.67;1.58;;;;;;;;;;6152094;23;20010;-59
2022/04/01 14:01:27;;;;;;;1.55;1.45;;;;;;;;;;6151350;23;19994;-58
2022/04/01 14:03:53;;;;;;;1.40;1.30;;;;;;;;;;6151842;23;20316;-59
2022/04/01 14:06:19;;;;;;;1.58;1.48;;;;;;;;;;6152090;23;20021;-59
2022/04/01 14:08:44;;;;;;;2.20;2.05;;;;;;;;;;6151378;23;20068;-59
2022/04/01 14:11:09;;;;;;;3.85;3.55;;;;;;;;;;6151256;23;20084;-58
2022/04/01 14:13:35;;;;;;;2.28;2.17;;;;;;;;;;6150515;23;20002;-59
2022/04/01 14:16:01;;;;;;;2.28;1.85;;;;;;;;;;6150962;23;19994;-60
2022/04/01 14:18:26;;;;;;;1.08;1.08;;;;;;;;;;6149383;23;20092;-59
2022/04/01 14:20:57;;;;;;;2.90;2.72;;;;;;;;;;6151167;23;20021;-60
2022/04/01 14:23:28;;;;;;;0.32;0.32;;;;;;;;;;6150314;23;20005;-59
2022/04/01 14:25:54;;;;;;;1.17;1.15;;;;;;;;;;6150490;23;20031;-59
2022/04/01 14:28:19;;;;;;;3.65;1.48;;;;;;;;;;6124663;23;20056;-59
2022/04/01 14:30:44;;;;;;;2.30;2.03;;;;;;;;;;6147618;23;20002;-58
2022/04/01 14:33:10;;;;;;;1.70;1.58;;;;;;;;;;6148073;23;20009;-58
2022/04/01 14:35:35;;;;;;;1.63;1.27;;;;;;;;;;6150611;23;20128;-59
2022/04/01 14:38:03;;;;;;;1.58;1.48;;;;;;;;;;6150636;23;20008;-58
2022/04/01 14:40:28;;;;;;;0.75;0.75;;;;;;;;;;6149808;23;20419;-57
2022/04/01 14:42:54;;;;;;;4.40;4.03;;;;;;;;;;6151000;23;20012;-59
2022/04/01 14:45:19;;;;;;;1.05;1.05;;;;;;;;;;6150448;23;20009;-58
2022/04/01 14:47:45;;;;;;;10.45;2.28;;;;;;;;;;6150091;23;20029;-59
2022/04/01 14:50:11;;;;;;;0.90;0.90;;;;;;;;;;6151057;23;20001;-58
2022/04/01 14:52:36;;;;;;;0.00;0.00;;;;;;;;;;6149491;23;20423;-60
2022/04/01 14:55:02;;;;;;;2.10;2.00;;;;;;;;;;6150242;23;20020;-58
2022/04/01 14:57:27;;;;;;;2.25;2.15;;;;;;;;;;6150149;23;20076;-58
2022/04/01 14:59:52;;;;;;;0.43;0.43;;;;;;;;;;6150663;23;20004;-59
2022/04/01 15:02:18;;;;;;;2.28;2.17;;;;;;;;;;6150131;23;20485;-59